PROFILE

 METAR AND TAF INFORMATION
ADDS - METARS form results

(0500 UTC 09 August 2020)
http://aviationweather.gov/metar/data/
 
TNCM 082324Z 0900/0924 06012KT P6SM VCSH SCT018 TEMPO 0900/0902 BKN018 FM091400 09013KT P6SM SCT018 

 AIRPORT MAP

 RUNWAY INFORMATION
Runway 10 Runway length 7546 ft Runway width 150 ft
Runway elevation 13 ft Runway displaced threshold 0 ft Runway heading 96
Runway 28 Runway length 7546 ft Runway width 150 ft
Runway elevation 9 ft Runway displaced threshold 328 ft Runway heading 276

 AIRPORT FREQUENCIES
Type APP Name JULIANA AP Frequency 128.95 MHZ
Type TWR Name JULIANA TW Frequency 118.7 MHZ

 AIRPORT NEAR NAVIGATION AIDS
Type NDB Name St.mMarten Frequency 284 KHZ
Type VOR-DME Name St.mMarten Frequency 113000 KHZ